Albert, New Mexico
Current Conditions -  °F | °C
As of 8:53 PM on Tuesday 27 Jan 2015 (Local Time) from KTCC Reporting Station
Clear Clear  
Wind Chill: 51°   Ceiling: Unl
Heat Index: 51°   Visibility: 10mi
Dew Point: 39°   Wind: 16mph
Humidity: 63%   Direction: 220°SW
Pressure: 30.09"   Gusts: NA
Location:  35.7181°N, 103.591°W
Report Text: KTCC 280353Z AUTO 22014KT 10SM CLR 11/04 A3009 RMK AO2 SLP172 T01060039 $
Loading
Personal Weather Stations






























Interactive Weather Map New forecast layout! Learn more

10-Day Weather Forecast

Advertisements
Track Severe Weather on mobile